Time;durP1;ratioP1;P1;durP2;ratioP2;P2;SDS_P1;SDS_P2;PMS_P1;PMS_P2;Temp;Humidity;BMP_temperature;BMP_pressure;BME280_temperature;BME280_humidity;BME280_pressure;Samples;Min_cycle;Max_cycle;Signal;HPM_P1;HPM_P2
2022/10/21 00:00:30;;;;;;;302.87;283.00;;;16.20;26.30;;;;;;4973493;28;20443;-70
2022/10/21 00:02:56;;;;;;;436.10;403.93;;;16.20;26.40;;;;;;4973208;28;20180;-70
2022/10/21 00:05:22;;;;;;;493.30;455.80;;;16.20;26.30;;;;;;4972947;28;20186;-70
2022/10/21 00:07:47;;;;;;;433.97;400.63;;;16.20;26.30;;;;;;4973266;28;20797;-70
2022/10/21 00:10:13;;;;;;;607.97;567.33;;;16.30;26.00;;;;;;4973250;28;20623;-70
2022/10/21 00:12:38;;;;;;;561.07;517.80;;;16.40;25.60;;;;;;4973056;28;20181;-70
2022/10/21 00:15:06;;;;;;;592.10;547.87;;;16.40;25.50;;;;;;4973269;28;20182;-69
2022/10/21 00:17:35;;;;;;;650.60;602.87;;;16.40;26.60;;;;;;4973259;28;20181;-70
2022/10/21 00:20:06;;;;;;;685.37;634.67;;;16.20;28.00;;;;;;4973200;28;20471;-70
2022/10/21 00:22:32;;;;;;;489.10;454.33;;;16.10;28.90;;;;;;4972813;28;20835;-70
2022/10/21 00:24:57;;;;;;;480.87;448.37;;;15.90;30.90;;;;;;4973160;28;20421;-70
2022/10/21 00:27:23;;;;;;;585.37;545.03;;;15.80;31.00;;;;;;4973058;28;20224;-69
2022/10/21 00:29:48;;;;;;;550.20;517.87;;;15.70;31.70;;;;;;4971825;28;20284;-69
2022/10/21 00:32:14;;;;;;;460.90;432.73;;;15.60;32.90;;;;;;4973027;28;20698;-72
2022/10/21 00:34:42;;;;;;;545.83;508.20;;;15.50;33.80;;;;;;4973207;28;20200;-70
2022/10/21 00:37:09;;;;;;;434.37;407.77;;;15.30;35.60;;;;;;4973006;28;20596;-71
2022/10/21 00:39:35;;;;;;;612.53;569.27;;;15.20;36.60;;;;;;4972965;28;20445;-69
2022/10/21 00:42:01;;;;;;;395.70;371.70;;;15.10;37.00;;;;;;4971565;28;20583;-70
2022/10/21 00:44:26;;;;;;;500.30;469.20;;;15.00;39.20;;;;;;4973205;28;20906;-70
2022/10/21 00:47:15;;;;;;;428.43;403.80;;;14.90;39.80;;;;;;4972930;28;20204;-70
2022/10/21 00:50:00;;;;;;;528.43;497.60;;;14.90;40.50;;;;;;4972849;28;20225;-70
2022/10/21 00:52:27;;;;;;;506.67;475.03;;;14.90;40.50;;;;;;4972716;28;20922;-69
2022/10/21 00:54:55;;;;;;;587.60;548.10;;;15.00;40.70;;;;;;4972891;28;20430;-69
2022/10/21 00:57:22;;;;;;;528.07;497.20;;;14.90;40.60;;;;;;4973018;28;20416;-70
2022/10/21 00:59:52;;;;;;;563.17;528.67;;;15.00;40.60;;;;;;4972740;28;20474;-70
2022/10/21 01:02:18;;;;;;;719.60;668.03;;;14.90;40.50;;;;;;4972633;28;20929;-70
2022/10/21 01:04:45;;;;;;;473.90;446.90;;;15.00;40.60;;;;;;4972906;28;20417;-70
2022/10/21 01:07:11;;;;;;;506.00;475.67;;;15.00;41.10;;;;;;4971416;28;20851;-70
2022/10/21 01:09:37;;;;;;;521.77;491.17;;;15.10;40.70;;;;;;4973096;28;20444;-70
2022/10/21 01:12:07;;;;;;;567.90;531.20;;;15.10;40.70;;;;;;4972612;28;20420;-70
2022/10/21 01:14:39;;;;;;;805.03;738.97;;;15.20;40.80;;;;;;4972678;28;20588;-69
2022/10/21 01:17:24;;;;;;;978.27;898.00;;;15.30;40.30;;;;;;4972724;28;20417;-69
2022/10/21 01:20:19;;;;;;;576.17;537.93;;;15.40;40.40;;;;;;4975198;28;20448;-69
2022/10/21 01:23:04;;;;;;;434.00;412.43;;;15.40;40.90;;;;;;4975958;28;20445;-70
2022/10/21 01:25:39;;;;;;;654.50;613.80;;;15.40;41.00;;;;;;4975840;28;20455;-69
2022/10/21 01:28:45;;;;;;;487.30;460.50;;;15.50;41.10;;;;;;4976590;28;20427;-70
2022/10/21 01:31:19;;;;;;;601.70;560.17;;;15.60;39.60;;;;;;4975796;28;20772;-69
2022/10/21 01:33:55;;;;;;;463.47;434.90;;;15.60;39.70;;;;;;4976067;28;20413;-70
2022/10/21 01:36:42;;;;;;;387.57;366.10;;;15.70;38.60;;;;;;4974743;28;20510;-70
2022/10/21 01:39:26;;;;;;;711.27;655.17;;;15.90;37.00;;;;;;4974650;28;20436;-70
2022/10/21 01:41:58;;;;;;;739.37;688.33;;;16.00;36.60;;;;;;4975963;28;20432;-69
2022/10/21 01:44:55;;;;;;;745.63;692.87;;;16.00;36.30;;;;;;4975942;28;20409;-70
2022/10/21 01:47:40;;;;;;;430.67;405.37;;;16.00;36.30;;;;;;4973519;28;20985;-70
2022/10/21 01:50:19;;;;;;;575.97;537.30;;;16.00;36.80;;;;;;4976102;28;20857;-70
2022/10/21 01:52:50;;;;;;;658.40;614.17;;;15.80;37.00;;;;;;4974298;28;20436;-69
2022/10/21 01:55:20;;;;;;;420.07;393.33;;;15.80;36.40;;;;;;4975715;28;20900;-69
2022/10/21 01:57:51;;;;;;;391.73;367.13;;;15.80;37.60;;;;;;4975755;28;20816;-70
2022/10/21 02:00:17;;;;;;;534.00;497.33;;;15.70;37.60;;;;;;4974104;28;20441;-69
2022/10/21 02:02:46;;;;;;;528.57;492.60;;;15.70;37.00;;;;;;4975353;28;20427;-69
2022/10/21 02:05:21;;;;;;;509.13;477.10;;;15.60;37.70;;;;;;4975476;28;20910;-70
2022/10/21 02:07:48;;;;;;;623.33;578.70;;;15.50;38.40;;;;;;4975456;28;20510;-69
2022/10/21 02:10:14;;;;;;;615.80;573.13;;;15.40;38.50;;;;;;4975356;28;20436;-68
2022/10/21 02:12:42;;;;;;;546.83;512.57;;;15.20;39.40;;;;;;4973813;28;20548;-69
2022/10/21 02:15:09;;;;;;;534.90;500.73;;;15.20;40.30;;;;;;4974125;28;20421;-68
2022/10/21 02:17:37;;;;;;;664.30;618.30;;;15.20;40.70;;;;;;4975282;28;20416;-69
2022/10/21 02:20:07;;;;;;;624.90;582.50;;;15.10;40.30;;;;;;4975236;28;20799;-70
2022/10/21 02:22:34;;;;;;;600.80;559.33;;;15.00;42.00;;;;;;4975333;28;20456;-69
2022/10/21 02:25:16;;;;;;;541.87;507.20;;;14.90;41.60;;;;;;4975235;28;20425;-68
2022/10/21 02:27:42;;;;;;;689.57;638.70;;;14.70;43.30;;;;;;4975109;28;20460;-70
2022/10/21 02:30:08;;;;;;;589.17;550.37;;;14.70;42.70;;;;;;4974607;28;20468;-69
2022/10/21 02:32:52;;;;;;;359.63;339.70;;;14.70;43.40;;;;;;4975556;28;20555;-70
2022/10/21 02:35:44;;;;;;;848.87;785.23;;;14.80;43.30;;;;;;4975078;28;20999;-69
2022/10/21 02:38:29;;;;;;;701.77;652.03;;;14.80;42.40;;;;;;4973765;28;20443;-69
2022/10/21 02:41:05;;;;;;;703.13;658.60;;;14.80;42.90;;;;;;4974698;28;20409;-70
2022/10/21 02:43:44;;;;;;;563.27;528.53;;;14.70;42.40;;;;;;4974959;28;20427;-69
2022/10/21 02:46:13;;;;;;;497.20;469.90;;;14.70;43.50;;;;;;4974791;28;20832;-70
2022/10/21 02:48:42;;;;;;;877.93;808.97;;;14.80;43.10;;;;;;4973213;28;20453;-69
2022/10/21 02:51:08;;;;;;;607.03;569.27;;;14.80;42.50;;;;;;4974533;28;20810;-70
2022/10/21 02:53:34;;;;;;;726.63;678.33;;;14.80;43.60;;;;;;4974610;28;20441;-69
2022/10/21 02:56:00;;;;;;;684.67;642.13;;;14.80;43.30;;;;;;4974648;28;20420;-70
2022/10/21 02:58:26;;;;;;;664.50;626.07;;;14.80;42.70;;;;;;4974478;28;20475;-69
2022/10/21 03:00:51;;;;;;;527.10;490.43;;;14.80;42.90;;;;;;4974248;28;20178;-70
2022/10/21 03:03:17;;;;;;;594.87;557.50;;;14.90;43.00;;;;;;4974546;28;20204;-69
2022/10/21 03:05:42;;;;;;;790.53;734.63;;;14.80;43.40;;;;;;4974430;28;20706;-69
2022/10/21 03:08:08;;;;;;;604.93;571.33;;;14.90;43.50;;;;;;4974479;28;20602;-70
2022/10/21 03:10:34;;;;;;;704.87;660.20;;;14.90;43.70;;;;;;4974339;28;20204;-70
2022/10/21 03:12:59;;;;;;;598.87;560.60;;;14.90;43.60;;;;;;4974261;28;20655;-69
2022/10/21 03:15:25;;;;;;;721.27;674.90;;;14.90;43.40;;;;;;4974370;28;20184;-70
2022/10/21 03:17:50;;;;;;;884.93;817.87;;;15.00;42.80;;;;;;4974246;28;20255;-69
2022/10/21 03:20:16;;;;;;;730.10;682.10;;;15.00;43.10;;;;;;4974564;28;20201;-69
2022/10/21 03:22:43;;;;;;;584.90;548.77;;;15.00;43.20;;;;;;4973836;28;20173;-69
2022/10/21 03:25:09;;;;;;;725.77;676.60;;;14.90;43.90;;;;;;4974081;28;20178;-70
2022/10/21 03:27:35;;;;;;;620.73;582.10;;;14.90;43.60;;;;;;4973914;28;20828;-71
2022/10/21 03:30:00;;;;;;;666.10;622.77;;;15.00;43.80;;;;;;4972525;28;20445;-70
2022/10/21 03:32:26;;;;;;;430.60;407.83;;;15.10;43.30;;;;;;4973748;28;20242;-70
2022/10/21 03:34:51;;;;;;;644.73;604.87;;;15.20;43.30;;;;;;4973910;28;20197;-70
2022/10/21 03:37:17;;;;;;;551.53;517.50;;;15.10;43.10;;;;;;4973841;28;20215;-70
2022/10/21 03:39:42;;;;;;;675.17;634.43;;;15.10;43.40;;;;;;4973514;28;20197;-70
2022/10/21 03:42:08;;;;;;;846.50;778.70;;;15.10;43.40;;;;;;4973067;28;20517;-69
2022/10/21 03:44:34;;;;;;;865.80;802.73;;;15.20;43.30;;;;;;4973574;28;20243;-71
2022/10/21 03:46:59;;;;;;;640.03;600.10;;;15.20;42.90;;;;;;4973588;28;20216;-70
2022/10/21 03:49:25;;;;;;;913.97;842.13;;;15.20;43.40;;;;;;4973627;28;20217;-70
2022/10/21 03:51:50;;;;;;;855.13;790.17;;;15.30;43.50;;;;;;4973350;28;20182;-69
2022/10/21 03:54:17;;;;;;;707.60;659.50;;;15.20;43.30;;;;;;4973558;28;20185;-70
2022/10/21 03:56:43;;;;;;;698.13;657.27;;;15.40;42.60;;;;;;4973605;28;20238;-70
2022/10/21 03:59:08;;;;;;;561.17;526.97;;;15.40;42.20;;;;;;4973345;28;20656;-70
2022/10/21 04:01:34;;;;;;;777.90;727.10;;;15.40;42.80;;;;;;4973351;28;20447;-69
2022/10/21 04:03:59;;;;;;;776.70;720.23;;;15.30;42.60;;;;;;4973390;28;20185;-70
2022/10/21 04:06:25;;;;;;;608.80;572.77;;;15.30;43.20;;;;;;4973281;28;20201;-70
2022/10/21 04:08:51;;;;;;;748.20;698.67;;;15.30;43.10;;;;;;4973326;28;20189;-70
2022/10/21 04:11:16;;;;;;;1009.63;923.53;;;15.30;43.30;;;;;;4973202;28;20256;-70
2022/10/21 04:13:43;;;;;;;690.53;650.20;;;15.30;43.60;;;;;;4973230;28;20177;-70
2022/10/21 04:16:13;;;;;;;925.63;849.87;;;15.30;43.80;;;;;;4972048;28;20185;-70
2022/10/21 04:18:39;;;;;;;774.83;721.80;;;15.30;43.60;;;;;;4971803;28;20444;-70
2022/10/21 04:21:04;;;;;;;917.60;842.63;;;15.30;43.70;;;;;;4972937;28;20475;-70
2022/10/21 04:23:30;;;;;;;639.00;595.83;;;15.30;43.40;;;;;;4971954;28;20181;-70
2022/10/21 04:25:56;;;;;;;520.77;490.77;;;15.40;43.30;;;;;;4973146;28;20548;-69
2022/10/21 04:28:21;;;;;;;766.27;710.47;;;15.40;42.80;;;;;;4973041;28;20176;-70
2022/10/21 04:30:48;;;;;;;693.93;644.97;;;15.50;42.10;;;;;;4972885;28;20205;-70
2022/10/21 04:33:14;;;;;;;565.37;531.27;;;15.50;41.70;;;;;;4973048;28;20613;-71
2022/10/21 04:35:39;;;;;;;556.83;519.93;;;15.50;42.50;;;;;;4973019;28;20456;-69
2022/10/21 04:38:05;;;;;;;672.60;627.63;;;15.60;41.70;;;;;;4971776;28;20207;-70
2022/10/21 04:40:31;;;;;;;532.47;502.27;;;15.60;41.20;;;;;;4973451;28;20252;-70
2022/10/21 04:42:56;;;;;;;676.27;628.97;;;15.60;41.20;;;;;;4973249;28;20225;-69
2022/10/21 04:45:22;;;;;;;550.13;514.53;;;15.60;41.20;;;;;;4972963;28;20200;-69
2022/10/21 04:47:47;;;;;;;439.23;414.83;;;15.70;40.60;;;;;;4972930;28;20204;-70
2022/10/21 04:50:13;;;;;;;530.87;497.70;;;15.70;40.80;;;;;;4972840;28;20208;-70
2022/10/21 04:52:38;;;;;;;480.83;453.03;;;15.70;40.40;;;;;;4975281;28;20259;-70
2022/10/21 04:55:05;;;;;;;622.20;581.77;;;15.60;41.20;;;;;;4976706;28;20254;-70
2022/10/21 04:57:30;;;;;;;803.67;744.40;;;15.50;41.10;;;;;;4976646;28;20221;-70
2022/10/21 04:59:56;;;;;;;647.60;604.90;;;15.50;41.30;;;;;;4975603;28;20846;-70
2022/10/21 05:02:21;;;;;;;562.07;527.53;;;15.30;42.30;;;;;;4976392;28;20184;-70
2022/10/21 05:04:47;;;;;;;469.63;441.87;;;15.30;42.80;;;;;;4976811;28;20180;-70
2022/10/21 05:07:13;;;;;;;522.83;493.73;;;15.40;42.80;;;;;;4975154;28;20313;-70
2022/10/21 05:09:38;;;;;;;558.03;522.10;;;15.40;42.10;;;;;;4976352;28;20435;-70
2022/10/21 05:12:04;;;;;;;418.67;397.13;;;15.30;41.90;;;;;;4976133;28;20184;-70
2022/10/21 05:14:30;;;;;;;696.20;651.43;;;15.10;45.10;;;;;;4976484;28;20204;-70
2022/10/21 05:16:55;;;;;;;495.00;465.80;;;15.10;44.10;;;;;;4976287;28;20181;-70
2022/10/21 05:19:21;;;;;;;592.33;555.67;;;15.10;45.80;;;;;;4976111;28;20212;-69
2022/10/21 05:21:46;;;;;;;568.33;533.40;;;15.00;45.80;;;;;;4975826;28;20232;-70
2022/10/21 05:24:14;;;;;;;752.53;701.83;;;15.00;46.40;;;;;;4976164;28;20177;-70
2022/10/21 05:26:39;;;;;;;716.53;668.40;;;15.00;46.50;;;;;;4976501;28;20209;-70
2022/10/21 05:29:05;;;;;;;601.73;566.67;;;14.90;46.70;;;;;;4974923;28;20440;-71
2022/10/21 05:31:30;;;;;;;1052.20;954.13;;;15.00;47.50;;;;;;4975801;28;20189;-70
2022/10/21 05:33:56;;;;;;;1012.73;928.97;;;15.00;47.70;;;;;;4976105;28;20701;-70
2022/10/21 05:36:21;;;;;;;1016.43;927.03;;;15.00;47.50;;;;;;4974737;28;20185;-70
2022/10/21 05:38:47;;;;;;;577.40;540.73;;;15.00;47.80;;;;;;4975960;28;20208;-70
2022/10/21 05:41:13;;;;;;;613.13;574.30;;;15.10;48.40;;;;;;4975794;28;20568;-70
2022/10/21 05:43:39;;;;;;;563.63;532.03;;;15.10;48.10;;;;;;4976037;28;20173;-70
2022/10/21 05:46:04;;;;;;;465.50;438.97;;;15.20;47.80;;;;;;4975786;28;20197;-70
2022/10/21 05:48:30;;;;;;;619.47;580.93;;;15.20;48.10;;;;;;4975646;28;20514;-69
2022/10/21 05:50:55;;;;;;;422.40;398.47;;;15.30;47.40;;;;;;4975692;28;20315;-70
2022/10/21 05:53:25;;;;;;;488.93;462.37;;;15.40;46.90;;;;;;4975830;28;20177;-70
2022/10/21 05:56:03;;;;;;;678.00;629.93;;;15.50;45.20;;;;;;4975705;28;20271;-70
2022/10/21 05:58:29;;;;;;;429.03;405.50;;;15.50;45.00;;;;;;4975750;28;20397;-70
2022/10/21 06:00:55;;;;;;;665.27;625.03;;;15.60;44.60;;;;;;4974125;28;20815;-70
2022/10/21 06:03:29;;;;;;;441.70;417.70;;;15.60;44.60;;;;;;4975358;28;20420;-70
2022/10/21 06:05:56;;;;;;;687.37;645.63;;;15.60;45.10;;;;;;4975703;28;20416;-69
2022/10/21 06:08:22;;;;;;;795.63;738.43;;;15.50;44.60;;;;;;4975455;28;20416;-70
2022/10/21 06:10:48;;;;;;;564.00;529.27;;;15.60;44.20;;;;;;4975995;28;20413;-70
2022/10/21 06:13:13;;;;;;;530.67;496.27;;;15.60;43.90;;;;;;4975857;28;20417;-70
2022/10/21 06:15:39;;;;;;;577.87;540.03;;;15.60;44.00;;;;;;4976430;28;20231;-70
2022/10/21 06:18:04;;;;;;;434.80;411.57;;;15.60;43.80;;;;;;4975080;28;20178;-71
2022/10/21 06:20:30;;;;;;;427.80;402.50;;;15.60;44.50;;;;;;4975721;28;20257;-71
2022/10/21 06:22:58;;;;;;;501.77;471.63;;;15.60;44.80;;;;;;4976221;28;20261;-71
2022/10/21 06:25:24;;;;;;;692.47;646.67;;;15.60;45.10;;;;;;4975343;28;20177;-71
2022/10/21 06:27:50;;;;;;;471.37;444.60;;;15.50;45.10;;;;;;4975314;28;20832;-71
2022/10/21 06:30:16;;;;;;;585.87;548.20;;;15.60;45.40;;;;;;4975345;28;20193;-71
2022/10/21 06:32:41;;;;;;;550.40;518.97;;;15.50;45.80;;;;;;4975130;28;20424;-71
2022/10/21 06:35:07;;;;;;;533.17;499.57;;;15.60;45.70;;;;;;4974139;28;20173;-72
2022/10/21 06:37:32;;;;;;;493.73;465.50;;;15.50;46.20;;;;;;4975132;28;20729;-72
2022/10/21 06:39:58;;;;;;;689.10;638.60;;;15.50;46.20;;;;;;4975052;28;20256;-71
2022/10/21 06:42:23;;;;;;;810.47;756.93;;;15.40;46.10;;;;;;4975899;28;20186;-71
2022/10/21 06:44:49;;;;;;;669.63;624.67;;;15.40;46.10;;;;;;4974994;28;20196;-71
2022/10/21 06:47:16;;;;;;;784.67;734.00;;;15.40;46.60;;;;;;4974977;28;20215;-71
2022/10/21 06:49:41;;;;;;;760.10;705.77;;;15.30;46.90;;;;;;4974982;28;20726;-69
2022/10/21 06:52:07;;;;;;;752.60;701.10;;;15.40;47.70;;;;;;4975197;28;20512;-70
2022/10/21 06:54:32;;;;;;;708.43;661.53;;;15.50;47.10;;;;;;4974946;28;20177;-69
2022/10/21 06:56:58;;;;;;;748.27;699.20;;;15.50;46.20;;;;;;4975579;28;20551;-70
2022/10/21 06:59:23;;;;;;;874.10;811.60;;;15.50;46.50;;;;;;4974916;28;20209;-71
2022/10/21 07:01:49;;;;;;;593.10;560.00;;;15.50;46.20;;;;;;4974591;28;20276;-70
2022/10/21 07:04:15;;;;;;;694.03;649.43;;;15.50;46.20;;;;;;4973509;28;20594;-70
2022/10/21 07:06:40;;;;;;;721.10;670.70;;;15.50;46.20;;;;;;4974544;28;20209;-70
2022/10/21 07:09:08;;;;;;;571.43;533.53;;;15.50;46.20;;;;;;4974666;28;20202;-70
2022/10/21 07:11:33;;;;;;;512.70;483.23;;;15.50;46.90;;;;;;4975351;28;20596;-71
2022/10/21 07:14:00;;;;;;;492.00;463.63;;;15.50;47.20;;;;;;4975963;28;20417;-71
2022/10/21 07:16:31;;;;;;;528.43;497.03;;;15.60;46.30;;;;;;4973667;28;20320;-71
2022/10/21 07:18:57;;;;;;;737.77;687.80;;;15.60;46.30;;;;;;4974289;28;20978;-70
2022/10/21 07:21:25;;;;;;;592.70;553.60;;;15.50;46.20;;;;;;4973977;28;20516;-70
2022/10/21 07:23:54;;;;;;;537.70;506.70;;;15.50;46.80;;;;;;4975054;28;20416;-70
2022/10/21 07:26:21;;;;;;;508.83;479.10;;;15.50;47.50;;;;;;4974311;28;20468;-71
2022/10/21 07:28:47;;;;;;;601.57;566.27;;;15.60;47.00;;;;;;4974302;28;20437;-70
2022/10/21 07:31:14;;;;;;;556.50;523.90;;;15.70;46.40;;;;;;4972716;28;20511;-70
2022/10/21 07:33:41;;;;;;;531.70;500.93;;;15.80;46.50;;;;;;4975871;28;20417;-71
2022/10/21 07:36:10;;;;;;;609.37;569.70;;;15.80;46.60;;;;;;4974146;28;20421;-70
2022/10/21 07:38:36;;;;;;;674.67;626.10;;;15.80;46.50;;;;;;4975012;28;20439;-70
2022/10/21 07:41:03;;;;;;;496.23;465.67;;;15.80;46.50;;;;;;4975501;28;20467;-71
2022/10/21 07:43:29;;;;;;;544.27;510.83;;;15.80;46.50;;;;;;4973785;28;20417;-71
2022/10/21 07:45:57;;;;;;;531.07;500.00;;;15.70;46.40;;;;;;4973780;28;20471;-71
2022/10/21 07:48:22;;;;;;;650.07;607.43;;;15.70;46.40;;;;;;4974819;28;20444;-71
2022/10/21 07:50:49;;;;;;;713.77;667.53;;;15.70;46.40;;;;;;4973219;28;20457;-70
2022/10/21 07:53:15;;;;;;;607.63;569.63;;;15.80;46.50;;;;;;4972382;28;20182;-70
2022/10/21 07:55:40;;;;;;;692.70;646.77;;;15.80;46.50;;;;;;4974541;28;20428;-70
2022/10/21 07:58:06;;;;;;;545.17;512.27;;;15.80;46.50;;;;;;4976432;28;20417;-70
2022/10/21 08:00:31;;;;;;;644.57;600.90;;;15.90;46.60;;;;;;4973928;28;20263;-74
2022/10/21 08:02:57;;;;;;;517.37;487.93;;;15.70;46.40;;;;;;4972558;28;20275;-71
2022/10/21 08:05:23;;;;;;;493.60;461.87;;;15.70;46.40;;;;;;4973757;28;20178;-71
2022/10/21 08:07:49;;;;;;;470.80;443.87;;;15.70;44.40;;;;;;4974725;28;20213;-71
2022/10/21 08:10:15;;;;;;;670.73;627.17;;;15.80;44.10;;;;;;4974356;28;20193;-70
2022/10/21 08:12:40;;;;;;;764.97;703.77;;;15.80;44.10;;;;;;4973880;28;20500;-70
2022/10/21 08:15:06;;;;;;;677.03;628.37;;;15.70;42.00;;;;;;4973907;28;20978;-70
2022/10/21 08:17:32;;;;;;;696.03;647.23;;;15.80;39.90;;;;;;4974339;28;20593;-70
2022/10/21 08:19:58;;;;;;;588.90;547.07;;;15.90;38.80;;;;;;4973526;28;20452;-70
2022/10/21 08:22:23;;;;;;;603.87;564.63;;;15.90;37.80;;;;;;4974354;28;20177;-71
2022/10/21 08:24:49;;;;;;;613.77;569.27;;;16.00;37.10;;;;;;4974406;28;20268;-68
2022/10/21 08:27:14;;;;;;;609.67;564.53;;;16.00;38.10;;;;;;4973377;28;20201;-71
2022/10/21 08:29:40;;;;;;;601.87;559.53;;;16.00;38.20;;;;;;4973253;28;20284;-72
2022/10/21 08:32:05;;;;;;;623.37;578.77;;;16.10;37.60;;;;;;4973080;28;20177;-70
2022/10/21 08:34:31;;;;;;;592.07;551.43;;;16.10;38.30;;;;;;4973540;28;20177;-70
2022/10/21 08:36:56;;;;;;;530.20;493.67;;;16.10;38.80;;;;;;4973256;28;20678;-71
2022/10/21 08:39:23;;;;;;;676.80;627.13;;;16.20;39.70;;;;;;4973145;28;20220;-71
2022/10/21 08:41:56;;;;;;;604.47;561.77;;;16.30;37.80;;;;;;4973166;28;20655;-70
2022/10/21 08:44:33;;;;;;;547.90;512.10;;;16.30;38.10;;;;;;4973230;28;20416;-70
2022/10/21 08:47:30;;;;;;;611.67;573.87;;;16.50;37.30;;;;;;4973146;28;20463;-71
2022/10/21 08:50:13;;;;;;;788.03;727.60;;;16.60;36.80;;;;;;4972746;28;20460;-71
2022/10/21 08:52:56;;;;;;;772.77;712.43;;;16.70;38.20;;;;;;4973359;28;20451;-71
2022/10/21 08:55:36;;;;;;;590.43;546.90;;;16.70;36.90;;;;;;4973016;28;20559;-71
2022/10/21 08:58:03;;;;;;;570.93;530.53;;;16.70;34.10;;;;;;4972836;28;20412;-71
2022/10/21 09:00:47;;;;;;;724.17;667.40;;;16.70;35.10;;;;;;4974042;28;20432;-71
2022/10/21 09:03:19;;;;;;;643.43;597.80;;;16.80;34.70;;;;;;4973482;28;20419;-70
2022/10/21 09:06:13;;;;;;;660.27;611.93;;;16.70;35.30;;;;;;4974340;28;20421;-70
2022/10/21 09:09:00;;;;;;;655.87;607.63;;;16.70;35.30;;;;;;4973104;28;20432;-71
2022/10/21 09:11:40;;;;;;;683.17;632.73;;;16.70;36.50;;;;;;4972680;28;20466;-71
2022/10/21 09:14:34;;;;;;;816.60;755.33;;;16.60;36.80;;;;;;4971833;28;20483;-70
2022/10/21 09:17:48;;;;;;;618.57;575.03;;;16.50;36.80;;;;;;4972817;28;20424;-70
2022/10/21 09:20:26;;;;;;;665.83;617.90;;;16.50;39.00;;;;;;4970025;28;20457;-70
2022/10/21 09:23:09;;;;;;;527.53;495.23;;;16.50;38.10;;;;;;4973164;28;20437;-70
2022/10/21 09:25:45;;;;;;;632.70;586.23;;;16.50;39.10;;;;;;4971588;28;20767;-70
2022/10/21 09:28:13;;;;;;;530.37;496.63;;;16.60;37.90;;;;;;4972485;28;20463;-70
2022/10/21 09:30:41;;;;;;;759.40;703.57;;;16.60;38.50;;;;;;4972884;28;20905;-70
2022/10/21 09:33:16;;;;;;;544.43;509.50;;;16.80;37.30;;;;;;4972613;28;20467;-70
2022/10/21 09:36:05;;;;;;;511.00;477.90;;;17.00;37.20;;;;;;4972660;28;20418;-70
2022/10/21 09:38:47;;;;;;;553.83;516.53;;;17.30;36.90;;;;;;4974155;28;20507;-71
2022/10/21 09:41:36;;;;;;;644.97;598.43;;;17.40;34.60;;;;;;4979073;28;20413;-71
2022/10/21 09:44:02;;;;;;;697.40;649.33;;;17.40;33.50;;;;;;4976755;28;20432;-71
2022/10/21 09:46:27;;;;;;;657.80;613.13;;;17.50;32.30;;;;;;4978775;28;20518;-71
2022/10/21 09:48:55;;;;;;;644.70;599.10;;;17.60;31.20;;;;;;4975661;28;20291;-70
2022/10/21 09:51:27;;;;;;;738.07;682.73;;;17.60;30.30;;;;;;4975671;28;20176;-70
2022/10/21 09:54:01;;;;;;;636.07;590.07;;;17.70;29.50;;;;;;4974708;28;20484;-70
2022/10/21 09:56:41;;;;;;;599.77;558.03;;;17.90;29.50;;;;;;4976599;28;20420;-70
2022/10/21 09:59:12;;;;;;;668.50;618.53;;;18.10;29.00;;;;;;4975614;28;20452;-70
2022/10/21 10:01:40;;;;;;;741.73;683.73;;;18.10;28.10;;;;;;4975349;28;20475;-70
2022/10/21 10:04:20;;;;;;;616.13;571.30;;;18.20;27.30;;;;;;4975621;28;20416;-70
2022/10/21 10:06:46;;;;;;;725.07;667.47;;;18.30;27.90;;;;;;4975880;28;20826;-70
2022/10/21 10:09:26;;;;;;;811.10;742.90;;;18.10;26.60;;;;;;4976346;28;20437;-71
2022/10/21 10:12:11;;;;;;;745.80;685.20;;;18.20;26.80;;;;;;4976102;28;20204;-70
2022/10/21 10:14:39;;;;;;;713.63;658.30;;;18.10;27.10;;;;;;4976410;28;20420;-71
2022/10/21 10:17:32;;;;;;;836.20;768.50;;;18.20;26.70;;;;;;4975370;28;20429;-71
2022/10/21 10:20:04;;;;;;;1024.60;929.90;;;18.20;26.90;;;;;;4977601;28;20428;-69
2022/10/21 10:22:41;;;;;;;1016.17;925.40;;;18.20;25.90;;;;;;4976460;28;20416;-71
2022/10/21 10:25:08;;;;;;;577.43;534.70;;;18.30;26.60;;;;;;4975398;28;20417;-71
2022/10/21 10:27:35;;;;;;;487.10;450.27;;;18.40;26.90;;;;;;4976261;28;20873;-71
2022/10/21 10:30:01;;;;;;;892.80;809.50;;;18.70;26.00;;;;;;4975144;28;20440;-70
2022/10/21 10:32:33;;;;;;;569.07;527.83;;;18.60;24.30;;;;;;4975413;28;20449;-71
2022/10/21 10:35:02;;;;;;;782.93;716.37;;;18.60;24.20;;;;;;4975723;28;20427;-70
2022/10/21 10:37:33;;;;;;;934.43;847.17;;;18.70;24.10;;;;;;4974962;28;20796;-71
2022/10/21 10:40:02;;;;;;;889.07;807.70;;;18.80;23.00;;;;;;4975223;28;20476;-71
2022/10/21 10:42:32;;;;;;;874.20;801.17;;;18.70;23.20;;;;;;4975685;28;20417;-71
2022/10/21 10:45:04;;;;;;;886.37;806.27;;;18.90;23.30;;;;;;4974905;28;20472;-71
2022/10/21 10:47:37;;;;;;;627.70;568.27;;;19.00;22.40;;;;;;4975686;28;20562;-71
2022/10/21 10:50:03;;;;;;;772.87;709.40;;;18.90;23.10;;;;;;4974686;28;20489;-71
2022/10/21 10:52:28;;;;;;;821.53;751.80;;;18.80;21.20;;;;;;4974726;28;20522;-71
2022/10/21 10:55:16;;;;;;;780.53;712.23;;;18.60;22.60;;;;;;4975480;28;20484;-71
2022/10/21 10:57:46;;;;;;;711.43;651.67;;;18.70;22.20;;;;;;4975553;28;20192;-72
2022/10/21 11:00:21;;;;;;;728.23;661.27;;;18.60;24.10;;;;;;4974512;28;20480;-71
2022/10/21 11:02:55;;;;;;;1013.27;917.60;;;18.60;23.40;;;;;;4976089;28;20434;-71
2022/10/21 11:05:30;;;;;;;944.13;847.23;;;18.40;23.50;;;;;;4975089;28;20456;-71
2022/10/21 11:08:15;;;;;;;354.93;331.30;;;18.40;22.00;;;;;;4976839;28;20846;-71
2022/10/21 11:10:52;;;;;;;663.23;604.60;;;18.50;23.40;;;;;;4974567;28;20788;-71
2022/10/21 11:13:21;;;;;;;619.20;563.30;;;18.50;22.40;;;;;;4975033;28;20500;-71
2022/10/21 11:16:14;;;;;;;602.93;551.30;;;18.70;22.90;;;;;;4974256;28;20421;-71
2022/10/21 11:18:52;;;;;;;715.00;651.57;;;18.70;22.00;;;;;;4975744;28;20437;-70
2022/10/21 11:21:33;;;;;;;830.33;746.07;;;19.00;22.30;;;;;;4974719;28;20416;-71
2022/10/21 11:24:11;;;;;;;915.20;828.07;;;18.90;21.20;;;;;;4973044;28;20797;-71
2022/10/21 11:27:01;;;;;;;692.33;633.67;;;18.90;20.90;;;;;;4972907;28;20472;-70
2022/10/21 11:30:02;;;;;;;1244.70;999.90;;;18.80;20.70;;;;;;4974009;28;20433;-71
2022/10/21 11:32:47;;;;;;;792.23;721.03;;;18.80;21.60;;;;;;4973738;28;20518;-70
2022/10/21 11:36:00;;;;;;;683.60;631.30;;;18.70;21.10;;;;;;4973833;28;20417;-70
2022/10/21 11:38:52;;;;;;;696.10;637.67;;;18.60;22.20;;;;;;4964848;28;20425;-71
2022/10/21 11:41:59;;;;;;;317.47;294.10;;;18.70;23.30;;;;;;4973500;28;20449;-70
2022/10/21 11:44:52;;;;;;;678.30;625.27;;;18.90;22.20;;;;;;4967982;28;20509;-71
2022/10/21 11:47:35;;;;;;;1092.90;986.83;;;19.20;22.30;;;;;;4972642;28;20818;-70
2022/10/21 11:50:26;;;;;;;787.50;704.73;;;18.90;20.50;;;;;;4973303;28;20460;-71
2022/10/21 11:53:10;;;;;;;638.47;582.73;;;19.00;22.40;;;;;;4973349;28;20439;-71
2022/10/21 11:56:01;;;;;;;568.03;517.20;;;19.10;20.80;;;;;;4973628;28;20782;-71
2022/10/21 11:59:07;;;;;;;798.13;732.17;;;19.10;21.10;;;;;;4972104;28;20431;-72
2022/10/21 12:01:52;;;;;;;970.60;877.53;;;19.20;21.60;;;;;;4972540;28;21006;-72
2022/10/21 12:05:01;;;;;;;787.63;716.50;;;19.00;20.80;;;;;;4972009;28;20423;-72
2022/10/21 12:07:29;;;;;;;718.63;655.80;;;19.20;21.50;;;;;;4973355;28;20467;-71
2022/10/21 12:10:00;;;;;;;356.97;324.53;;;18.90;21.80;;;;;;4973348;28;21059;-71
2022/10/21 12:12:33;;;;;;;330.23;306.20;;;19.00;20.20;;;;;;4973051;28;20427;-71
2022/10/21 12:15:03;;;;;;;877.53;792.67;;;19.00;21.20;;;;;;4973239;28;20416;-71
2022/10/21 12:17:33;;;;;;;989.27;898.20;;;19.00;21.40;;;;;;4973473;28;20420;-70
2022/10/21 12:20:02;;;;;;;1133.20;999.90;;;19.10;20.40;;;;;;4973151;28;20440;-71
2022/10/21 12:22:30;;;;;;;897.03;803.97;;;19.30;20.60;;;;;;4972982;28;20474;-70
2022/10/21 12:25:11;;;;;;;732.93;669.83;;;19.60;19.80;;;;;;4973159;28;20421;-71
2022/10/21 12:27:45;;;;;;;368.77;343.97;;;19.60;20.70;;;;;;4973062;28;21072;-70